createdAt,value
2022-09-16T00:02:06.585Z,97594.99
2022-09-16T00:04:41.381Z,97596.72
2022-09-16T00:07:14.804Z,97595.94
2022-09-16T00:09:48.081Z,97600.31
2022-09-16T00:12:21.577Z,97602.07
2022-09-16T00:14:56.304Z,97602.13
2022-09-16T00:17:31.203Z,97609.11
2022-09-16T00:20:05.010Z,97598.74
2022-09-16T00:22:38.415Z,97607.51
2022-09-16T00:25:12.485Z,97605.78
2022-09-16T00:27:45.911Z,97602.33
2022-09-16T00:30:19.658Z,97604.11
2022-09-16T00:32:54.263Z,97599.78
2022-09-16T00:35:27.896Z,97599.81
2022-09-16T00:38:01.259Z,97592.96
2022-09-16T00:40:34.718Z,97596.48
2022-09-16T00:43:11.423Z,97592.99
2022-09-16T00:45:47.994Z,97593.84
2022-09-16T00:48:25.178Z,97584.36
2022-09-16T00:51:01.564Z,97588.72
2022-09-16T00:53:42.721Z,97599.20
2022-09-16T00:56:12.861Z,97594.02
2022-09-16T00:58:48.926Z,97591.33
2022-09-16T01:01:23.740Z,97585.33
2022-09-16T01:03:59.759Z,97598.33
2022-09-16T01:06:35.428Z,97588.69
2022-09-16T01:09:08.869Z,97586.91
2022-09-16T01:11:42.367Z,97592.02
2022-09-16T01:14:34.518Z,97598.90
2022-09-16T01:17:11.093Z,97592.94
2022-09-16T01:19:55.374Z,97592.17
2022-09-16T01:22:38.349Z,97589.59
2022-09-16T01:25:16.060Z,97579.23
2022-09-16T01:28:12.562Z,97577.45
2022-09-16T01:30:59.460Z,97577.45
2022-09-16T01:33:37.930Z,97573.11
2022-09-16T01:36:19.656Z,97571.36
2022-09-16T01:39:00.413Z,97568.81
2022-09-16T01:41:36.703Z,97572.27
2022-09-16T01:44:13.003Z,97568.75
2022-09-16T01:46:49.300Z,97574.81
2022-09-16T01:49:25.172Z,97569.59
2022-09-16T01:52:01.387Z,97569.53
2022-09-16T01:54:37.718Z,97571.36
2022-09-16T01:57:14.488Z,97559.27
2022-09-16T01:59:51.000Z,97568.02
2022-09-16T02:02:27.350Z,97571.54
2022-09-16T02:05:03.812Z,97567.20
2022-09-16T02:07:40.106Z,97572.38
2022-09-16T02:10:17.392Z,97568.87
2022-09-16T02:12:53.653Z,97574.94
2022-09-16T02:15:29.458Z,97572.30
2022-09-16T02:18:11.990Z,97570.56
2022-09-16T02:20:48.166Z,97562.72
2022-09-16T02:23:24.440Z,97566.14
2022-09-16T02:25:59.500Z,97567.87
2022-09-16T02:28:36.210Z,97560.90
2022-09-16T02:31:11.542Z,97574.69
2022-09-16T02:33:47.691Z,97558.98
2022-09-16T02:36:23.949Z,97564.91
2022-09-16T02:39:00.301Z,97558.78
2022-09-16T02:41:33.667Z,97551.78
2022-09-16T02:44:07.194Z,97539.55
2022-09-16T02:46:43.858Z,97549.06
2022-09-16T02:49:20.474Z,97541.24
2022-09-16T02:51:57.636Z,97549.00
2022-09-16T02:54:36.643Z,97550.73
2022-09-16T02:57:11.011Z,97535.95
2022-09-16T02:59:45.703Z,97546.25
2022-09-16T03:02:19.386Z,97531.48
2022-09-16T03:04:52.818Z,97537.55
2022-09-16T03:07:26.194Z,97536.70
2022-09-16T03:10:00.222Z,97546.22
2022-09-16T03:12:49.729Z,97557.50
2022-09-16T03:15:34.336Z,97543.50
2022-09-16T03:21:22.075Z,97551.00
2022-09-16T03:24:00.576Z,97556.41
2022-09-16T03:26:36.774Z,97552.03
2022-09-16T03:29:15.980Z,97542.37
2022-09-16T03:31:52.884Z,97540.57
2022-09-16T03:34:30.012Z,97553.58
2022-09-16T03:37:06.390Z,97548.21
2022-09-16T03:39:40.680Z,97553.42
2022-09-16T03:42:15.244Z,97556.84
2022-09-16T03:44:48.600Z,97548.13
2022-09-16T03:47:21.843Z,97544.68
2022-09-16T03:49:55.631Z,97542.03
2022-09-16T03:52:28.847Z,97542.84
2022-09-16T03:55:01.948Z,97547.98
2022-09-16T03:57:35.807Z,97548.86
2022-09-16T04:00:19.366Z,97543.65
2022-09-16T04:03:04.386Z,97539.31
2022-09-16T04:05:37.646Z,97543.60
2022-09-16T04:08:31.298Z,97547.09
2022-09-16T04:11:06.598Z,97543.56
2022-09-16T04:16:34.650Z,97548.47
2022-09-16T04:19:14.035Z,97557.34
2022-09-16T04:21:58.872Z,97560.77
2022-09-16T04:24:36.676Z,97551.11
2022-09-16T04:27:10.433Z,97553.58
2022-09-16T04:29:43.594Z,97555.26
2022-09-16T04:32:16.969Z,97547.37
2022-09-16T04:34:50.219Z,97527.30
2022-09-16T04:37:23.304Z,97538.54
2022-09-16T04:39:58.950Z,97537.62
2022-09-16T04:42:31.444Z,97531.38
2022-09-16T04:45:04.899Z,97533.06
2022-09-16T04:47:38.144Z,97534.75
2022-09-16T04:50:12.436Z,97537.36
2022-09-16T04:52:46.298Z,97533.73
2022-09-16T04:55:23.145Z,97528.42
2022-09-16T04:57:56.279Z,97518.86
2022-09-16T05:00:29.485Z,97523.95
2022-09-16T05:03:02.738Z,97527.36
2022-09-16T05:05:36.189Z,97516.77
2022-09-16T05:08:10.170Z,97507.95
2022-09-16T05:10:43.460Z,97502.64
2022-09-16T05:13:16.907Z,97507.77
2022-09-16T05:15:51.237Z,97506.80
2022-09-16T05:18:25.339Z,97500.58
2022-09-16T05:21:01.361Z,97516.92
2022-09-16T05:23:34.797Z,97513.33
2022-09-16T05:26:12.982Z,97507.95
2022-09-16T05:28:46.911Z,97505.20
2022-09-16T05:31:22.437Z,97512.84
2022-09-16T05:33:58.907Z,97511.06
2022-09-16T05:36:33.695Z,97503.08
2022-09-16T05:39:24.819Z,97492.61
2022-09-16T05:41:42.989Z,97497.09
2022-09-16T05:44:16.195Z,97505.73
2022-09-16T05:46:50.560Z,97496.91
2022-09-16T05:49:24.515Z,97493.15
2022-09-16T05:51:57.659Z,97490.47
2022-09-16T05:54:35.424Z,97487.69
2022-09-16T05:57:08.888Z,97496.23
2022-09-16T05:59:43.189Z,97502.19
2022-09-16T06:02:16.769Z,97501.15
2022-09-16T06:04:51.657Z,97501.05
2022-09-16T06:07:25.760Z,97488.77
2022-09-16T06:10:02.359Z,97488.72
2022-09-16T06:12:38.055Z,97492.97
2022-09-16T06:15:13.653Z,97484.14
2022-09-16T06:17:47.916Z,97489.23
2022-09-16T06:20:23.036Z,97482.20
2022-09-16T06:22:56.220Z,97477.81
2022-09-16T06:25:29.356Z,97482.75
2022-09-16T06:28:02.297Z,97482.42
2022-09-16T06:30:35.490Z,97481.52
2022-09-16T06:33:10.800Z,97489.16
2022-09-16T06:35:43.818Z,97475.05
2022-09-16T06:38:16.693Z,97473.09
2022-09-16T06:40:50.629Z,97461.66
2022-09-16T06:43:23.512Z,97468.38
2022-09-16T06:46:00.558Z,97465.34
2022-09-16T06:48:35.129Z,97459.80
2022-09-16T06:51:10.888Z,97470.75
2022-09-16T06:53:45.176Z,97462.94
2022-09-16T06:56:20.640Z,97458.66
2022-09-16T06:58:56.016Z,97460.97
2022-09-16T07:01:31.832Z,97451.04
2022-09-16T07:04:08.326Z,97451.73
2022-09-16T07:09:16.179Z,97450.26
2022-09-16T07:11:49.035Z,97446.86
2022-09-16T07:14:22.025Z,97450.61
2022-09-16T07:16:55.324Z,97453.83
2022-09-16T07:19:28.984Z,97442.06
2022-09-16T07:22:02.138Z,97445.40
2022-09-16T07:24:35.299Z,97439.07
2022-09-16T07:27:08.618Z,97434.86
2022-09-16T07:29:41.803Z,97446.38
2022-09-16T07:32:15.727Z,97448.09
2022-09-16T07:34:48.844Z,97447.47
2022-09-16T07:37:22.210Z,97440.86
2022-09-16T07:39:55.363Z,97435.54
2022-09-16T07:42:30.367Z,97433.50
2022-09-16T07:45:07.095Z,97431.06
2022-09-16T07:47:40.259Z,97428.70
2022-09-16T07:50:13.833Z,97393.25
2022-09-16T07:52:47.197Z,97425.73
2022-09-16T07:55:20.849Z,97412.38
2022-09-16T07:57:55.487Z,97404.69
2022-09-16T08:00:28.803Z,97404.56
2022-09-16T08:03:02.067Z,97390.58
2022-09-16T08:05:36.308Z,97398.75
2022-09-16T08:08:09.487Z,97399.36
2022-09-16T08:10:43.689Z,97395.13
2022-09-16T08:13:16.828Z,97396.23
2022-09-16T08:15:50.049Z,97391.19
2022-09-16T08:18:23.589Z,97396.58
2022-09-16T08:20:56.657Z,97402.97
2022-09-16T08:23:31.437Z,97393.23
2022-09-16T08:26:05.400Z,97377.11
2022-09-16T08:28:50.880Z,97383.69
2022-09-16T08:31:16.914Z,97389.26
2022-09-16T08:33:50.137Z,97387.70
2022-09-16T08:36:25.027Z,97374.35
2022-09-16T08:38:59.534Z,97365.94
2022-09-16T08:41:55.394Z,97372.86
2022-09-16T08:44:33.347Z,97370.56
2022-09-16T08:47:10.659Z,97374.72
2022-09-16T08:49:46.737Z,97369.99
2022-09-16T08:52:23.333Z,97365.04
2022-09-16T08:54:59.947Z,97373.20
2022-09-16T08:57:37.574Z,97372.33
2022-09-16T09:00:16.761Z,97377.57
2022-09-16T09:02:54.679Z,97373.53
2022-09-16T09:05:33.180Z,97376.16
2022-09-16T09:08:16.273Z,97364.27
2022-09-16T09:10:53.653Z,97362.13
2022-09-16T09:16:47.402Z,97355.41
2022-09-16T09:19:32.465Z,97361.19
2022-09-16T09:22:09.214Z,97356.09
2022-09-16T09:24:56.773Z,97360.96
2022-09-16T09:27:34.149Z,97359.59
2022-09-16T09:30:14.267Z,97352.66
2022-09-16T09:33:02.328Z,97360.56
2022-09-16T09:35:50.683Z,97356.53
2022-09-16T09:38:49.640Z,97345.47
2022-09-16T09:44:35.933Z,97346.98
2022-09-16T09:47:12.650Z,97347.34
2022-09-16T09:49:48.221Z,97339.63
2022-09-16T09:52:24.974Z,97342.98
2022-09-16T09:55:00.146Z,97346.22
2022-09-16T09:57:38.049Z,97344.48
2022-09-16T10:00:18.481Z,97346.83
2022-09-16T10:02:51.785Z,97341.09
2022-09-16T10:05:27.487Z,97325.08
2022-09-16T10:08:03.980Z,97329.19
2022-09-16T10:10:39.657Z,97323.60
2022-09-16T10:13:14.648Z,97323.47
2022-09-16T10:15:53.316Z,97330.04
2022-09-16T10:18:30.035Z,97340.91
2022-09-16T10:21:07.936Z,97336.36
2022-09-16T10:23:39.987Z,97329.78
2022-09-16T10:26:24.613Z,97327.09
2022-09-16T10:29:00.800Z,97338.72
2022-09-16T10:31:38.337Z,97321.84
2022-09-16T10:34:19.199Z,97323.80
2022-09-16T10:37:01.731Z,97325.72
2022-09-16T10:39:35.694Z,97322.00
2022-09-16T10:42:18.610Z,97314.01
2022-09-16T10:44:52.967Z,97303.50
2022-09-16T10:47:29.657Z,97300.83
2022-09-16T10:50:05.882Z,97300.65
2022-09-16T10:52:46.072Z,97299.95
2022-09-16T10:55:32.699Z,97292.91
2022-09-16T10:58:15.225Z,97302.18
2022-09-16T11:00:52.471Z,97301.70
2022-09-16T11:04:05.313Z,97290.17
2022-09-16T11:06:53.433Z,97295.91
2022-09-16T11:09:31.898Z,97289.16
2022-09-16T11:12:30.922Z,97280.72
2022-09-16T11:15:07.854Z,97287.52
2022-09-16T11:17:49.560Z,97273.26
2022-09-16T11:21:02.371Z,97244.66
2022-09-16T11:26:21.704Z,97278.88
2022-09-16T11:29:09.771Z,97282.75
2022-09-16T11:31:48.746Z,97268.72
2022-09-16T11:34:29.513Z,97274.63
2022-09-16T11:37:09.574Z,97272.06
2022-09-16T11:39:54.300Z,97276.48
2022-09-16T11:42:32.008Z,97266.27
2022-09-16T11:45:18.322Z,97259.92
2022-09-16T11:48:02.457Z,97270.73
2022-09-16T11:50:44.063Z,97267.53
2022-09-16T11:53:48.642Z,97257.55
2022-09-16T11:56:25.208Z,97253.00
2022-09-16T11:59:01.754Z,97253.16
2022-09-16T12:01:38.563Z,97241.83
2022-09-16T12:04:16.032Z,97239.06
2022-09-16T12:06:55.099Z,97227.36
2022-09-16T12:09:32.148Z,97219.25
2022-09-16T12:12:12.834Z,97228.45
2022-09-16T12:14:50.016Z,97230.70
2022-09-16T12:17:26.415Z,97228.56
2022-09-16T12:20:03.089Z,97227.39
2022-09-16T12:22:39.972Z,97236.92
2022-09-16T12:25:16.709Z,97237.01
2022-09-16T12:27:53.104Z,97215.69
2022-09-16T12:30:29.352Z,97223.44
2022-09-16T12:33:07.547Z,97225.91
2022-09-16T12:35:43.401Z,97214.58
2022-09-16T12:38:20.074Z,97210.87
2022-09-16T12:41:01.383Z,97215.44
2022-09-16T12:44:11.180Z,97213.19
2022-09-16T12:50:24.689Z,97213.52
2022-09-16T12:53:21.113Z,97221.84
2022-09-16T12:56:02.422Z,97227.39
2022-09-16T12:58:58.513Z,97223.97
2022-09-16T13:01:35.119Z,97228.36
2022-09-16T13:04:12.806Z,97235.08
2022-09-16T13:06:51.984Z,97236.59
2022-09-16T13:09:27.652Z,97234.39
2022-09-16T13:14:38.711Z,97232.82
2022-09-16T13:17:13.950Z,97226.91
2022-09-16T13:19:52.299Z,97228.09
2022-09-16T13:22:28.414Z,97219.17
2022-09-16T13:25:07.120Z,97220.72
2022-09-16T13:27:44.282Z,97224.81
2022-09-16T13:30:29.746Z,97226.92
2022-09-16T13:33:30.388Z,97237.53
2022-09-16T13:36:20.637Z,97231.38
2022-09-16T13:38:56.105Z,97226.98
2022-09-16T13:41:35.638Z,97232.42
2022-09-16T13:47:15.670Z,97198.39
2022-09-16T13:49:52.514Z,97220.00
2022-09-16T13:52:28.347Z,97219.41
2022-09-16T13:55:11.789Z,97213.59
2022-09-16T13:57:59.349Z,97220.27
2022-09-16T14:00:36.351Z,97224.91
2022-09-16T14:03:29.153Z,97212.27
2022-09-16T14:06:25.764Z,97221.38
2022-09-16T14:09:02.742Z,97215.45
2022-09-16T14:11:39.756Z,97214.03
2022-09-16T14:14:36.344Z,97218.64
2022-09-16T14:16:51.259Z,97212.65
2022-09-16T14:19:28.516Z,97225.21
2022-09-16T14:22:07.042Z,97207.02
2022-09-16T14:24:42.458Z,97204.52
2022-09-16T14:27:23.540Z,97210.80
2022-09-16T14:30:01.974Z,97205.72
2022-09-16T14:32:37.723Z,97209.37
2022-09-16T14:35:14.812Z,97207.66
2022-09-16T14:37:49.931Z,97210.21
2022-09-16T14:40:25.797Z,97211.80
2022-09-16T14:43:02.210Z,97219.45
2022-09-16T14:45:37.131Z,97223.03
2022-09-16T14:48:12.011Z,97218.77
2022-09-16T14:50:47.546Z,97235.59
2022-09-16T14:53:35.947Z,97223.45
2022-09-16T14:59:16.363Z,97201.56
2022-09-16T15:01:49.456Z,97207.80
2022-09-16T15:04:25.918Z,97217.66
2022-09-16T15:07:03.983Z,97239.85
2022-09-16T15:09:40.352Z,97217.44
2022-09-16T15:12:21.170Z,97215.96
2022-09-16T15:14:54.471Z,97207.29
2022-09-16T15:17:29.492Z,97206.45
2022-09-16T15:20:03.234Z,97207.34
2022-09-16T15:22:37.599Z,97205.55
2022-09-16T15:25:23.894Z,97194.19
2022-09-16T15:28:05.999Z,97187.15
2022-09-16T15:30:41.895Z,97182.00
2022-09-16T15:33:32.513Z,97175.86
2022-09-16T15:36:07.685Z,97174.11
2022-09-16T15:38:44.469Z,97164.54
2022-09-16T15:41:16.264Z,97186.54
2022-09-16T15:43:49.513Z,97173.63
2022-09-16T15:46:24.975Z,97167.57
2022-09-16T15:49:01.869Z,97174.53
2022-09-16T15:51:38.274Z,97168.53
2022-09-16T15:54:16.839Z,97177.20
2022-09-16T15:56:59.136Z,97174.59
2022-09-16T15:59:35.515Z,97165.07
2022-09-16T16:02:11.771Z,97173.89
2022-09-16T16:04:44.723Z,97176.62
2022-09-16T16:07:25.280Z,97166.03
2022-09-16T16:09:59.626Z,97168.66
2022-09-16T16:12:33.668Z,97172.17
2022-09-16T16:15:08.573Z,97166.18
2022-09-16T16:17:43.026Z,97163.63
2022-09-16T16:20:17.629Z,97161.91
2022-09-16T16:22:51.399Z,97157.42
2022-09-16T16:25:24.928Z,97166.16
2022-09-16T16:27:58.237Z,97156.58
2022-09-16T16:30:31.520Z,97147.85
2022-09-16T16:33:06.037Z,97138.25
2022-09-16T16:35:39.251Z,97137.35
2022-09-16T16:38:12.605Z,97136.48
2022-09-16T16:40:53.535Z,97139.79
2022-09-16T16:43:27.257Z,97132.84
2022-09-16T16:46:01.057Z,97138.05
2022-09-16T16:48:34.347Z,97133.59
2022-09-16T16:51:10.499Z,97136.00
2022-09-16T16:53:43.576Z,97144.61
2022-09-16T16:56:16.768Z,97140.16
2022-09-16T16:58:49.846Z,97134.02
2022-09-16T17:01:23.220Z,97122.70
2022-09-16T17:03:56.520Z,97127.12
2022-09-16T17:06:30.159Z,97120.08
2022-09-16T17:09:03.763Z,97130.48
2022-09-16T17:11:37.854Z,97135.52
2022-09-16T17:14:12.160Z,97132.71
2022-09-16T17:16:47.096Z,97134.48
2022-09-16T17:19:21.170Z,97140.48
2022-09-16T17:21:55.818Z,97143.87
2022-09-16T17:24:28.705Z,97138.77
2022-09-16T17:27:02.203Z,97140.56
2022-09-16T17:29:35.074Z,97143.19
2022-09-16T17:32:08.247Z,97142.16
2022-09-16T17:34:41.610Z,97130.84
2022-09-16T17:37:15.398Z,97134.21
2022-09-16T17:39:49.773Z,97126.35
2022-09-16T17:42:22.887Z,97135.92
2022-09-16T17:44:55.830Z,97133.18
2022-09-16T17:47:28.940Z,97138.23
2022-09-16T17:50:04.246Z,97142.41
2022-09-16T17:52:37.072Z,97134.42
2022-09-16T17:55:11.041Z,97145.72
2022-09-16T17:57:43.995Z,97138.77
2022-09-16T18:00:19.093Z,97140.57
2022-09-16T18:02:52.211Z,97138.89
2022-09-16T18:05:30.081Z,97141.54
2022-09-16T18:08:02.485Z,97137.17
2022-09-16T18:10:35.460Z,97134.42
2022-09-16T18:13:09.877Z,97137.11
2022-09-16T18:15:42.989Z,97125.88
2022-09-16T18:18:19.757Z,97123.39
2022-09-16T18:20:57.016Z,97127.87
2022-09-16T18:23:30.219Z,97125.38
2022-09-16T18:26:07.716Z,97117.74
2022-09-16T18:29:07.940Z,97116.16
2022-09-16T18:31:23.272Z,97113.69
2022-09-16T18:33:57.841Z,97112.94
2022-09-16T18:36:32.898Z,97122.57
2022-09-16T18:39:07.903Z,97111.28
2022-09-16T18:41:42.609Z,97115.62
2022-09-16T18:44:20.038Z,97115.62
2022-09-16T18:46:53.597Z,97109.59
2022-09-16T18:49:28.091Z,97114.98
2022-09-16T18:52:01.703Z,97121.19
2022-09-16T18:54:34.843Z,97119.59
2022-09-16T18:57:09.406Z,97120.56
2022-09-16T18:59:43.704Z,97130.19
2022-09-16T19:02:16.844Z,97129.44
2022-09-16T19:04:49.916Z,97125.16
2022-09-16T19:07:28.092Z,97128.69
2022-09-16T19:10:03.395Z,97131.19
2022-09-16T19:12:39.240Z,97127.58
2022-09-16T19:17:54.649Z,97130.22
2022-09-16T19:20:27.725Z,97133.95
2022-09-16T19:23:00.875Z,97129.52
2022-09-16T19:25:33.956Z,97124.22
2022-09-16T19:28:09.895Z,97130.43
2022-09-16T19:30:43.229Z,97135.79
2022-09-16T19:48:18.930Z,97139.16
2022-09-16T19:50:54.397Z,97139.80
2022-09-16T19:53:28.553Z,97141.63
2022-09-16T19:56:04.282Z,97141.69
2022-09-16T19:58:39.121Z,97140.81
2022-09-16T20:01:15.026Z,97148.72
2022-09-16T20:06:16.415Z,97150.21
2022-09-16T20:08:51.445Z,97152.35
2022-09-16T20:11:27.536Z,97162.00
2022-09-16T20:14:02.043Z,97156.88
2022-09-16T20:16:36.899Z,97157.84
2022-09-16T20:19:14.742Z,97156.13
2022-09-16T20:21:46.397Z,97157.08
2022-09-16T20:24:21.452Z,97161.36
2022-09-16T20:26:57.767Z,97158.98
2022-09-16T20:29:32.082Z,97170.41
2022-09-16T20:32:05.620Z,97165.34
2022-09-16T20:34:38.801Z,97181.12
2022-09-16T20:37:12.087Z,97178.61
2022-09-16T20:39:45.850Z,97188.25
2022-09-16T20:42:19.271Z,97187.52
2022-09-16T20:44:52.165Z,97191.92
2022-09-16T20:47:27.302Z,97190.27
2022-09-16T20:50:00.339Z,97196.39
2022-09-16T20:52:33.929Z,97192.16
2022-09-16T20:55:11.787Z,97200.91
2022-09-16T20:57:43.943Z,97194.02
2022-09-16T21:00:18.108Z,97204.53
2022-09-16T21:02:52.399Z,97201.12
2022-09-16T21:05:25.334Z,97200.30
2022-09-16T21:07:59.549Z,97207.38
2022-09-16T21:10:33.735Z,97203.97
2022-09-16T21:13:07.178Z,97203.98
2022-09-16T21:15:40.175Z,97210.16
2022-09-16T21:18:13.104Z,97211.09
2022-09-16T21:20:45.922Z,97212.83
2022-09-16T21:23:19.051Z,97210.22
2022-09-16T21:25:52.063Z,97212.93
2022-09-16T21:28:25.374Z,97221.56
2022-09-16T21:31:02.880Z,97223.23
2022-09-16T21:33:37.754Z,97232.57
2022-09-16T21:36:12.947Z,97237.52
2022-09-16T21:38:46.882Z,97231.27
2022-09-16T21:41:22.308Z,97246.01
2022-09-16T21:43:57.370Z,97226.70
2022-09-16T21:46:32.684Z,97240.56
2022-09-16T21:49:06.874Z,97238.06
2022-09-16T21:51:41.361Z,97242.67
2022-09-16T21:54:19.891Z,97243.67
2022-09-16T21:56:51.999Z,97249.87
2022-09-16T21:59:25.142Z,97256.10
2022-09-16T22:02:03.517Z,97249.36
2022-09-16T22:04:33.822Z,97246.97
2022-09-16T22:07:09.010Z,97248.86
2022-09-16T22:09:42.386Z,97252.48
2022-09-16T22:12:15.530Z,97260.42
2022-09-16T22:14:48.557Z,97249.29
2022-09-16T22:17:21.968Z,97257.20
2022-09-16T22:19:55.092Z,97259.06
2022-09-16T22:22:28.810Z,97256.52
2022-09-16T22:25:01.856Z,97265.28
2022-09-16T22:27:34.962Z,97259.32
2022-09-16T22:30:10.656Z,97263.72
2022-09-16T22:32:43.744Z,97265.50
2022-09-16T22:35:17.059Z,97264.70
2022-09-16T22:37:51.645Z,97264.75
2022-09-16T22:40:25.281Z,97264.81
2022-09-16T22:42:59.419Z,97277.92
2022-09-16T22:45:32.528Z,97284.04
2022-09-16T22:48:06.066Z,97289.40
2022-09-16T22:50:39.331Z,97296.41
2022-09-16T22:53:12.667Z,97296.50
2022-09-16T22:55:45.973Z,97303.45
2022-09-16T22:58:19.116Z,97292.21
2022-09-16T23:00:53.236Z,97296.60
2022-09-16T23:03:26.449Z,97303.66
2022-09-16T23:06:01.691Z,97294.23
2022-09-16T23:08:37.143Z,97294.27
2022-09-16T23:11:13.409Z,97303.05
2022-09-16T23:13:49.049Z,97298.77
2022-09-16T23:16:24.424Z,97294.49
2022-09-16T23:18:59.718Z,97295.41
2022-09-16T23:21:33.449Z,97291.97
2022-09-16T23:24:08.743Z,97296.39
2022-09-16T23:26:41.900Z,97290.34
2022-09-16T23:29:15.995Z,97298.20
2022-09-16T23:31:49.165Z,97299.94
2022-09-16T23:34:23.701Z,97299.09
2022-09-16T23:36:56.867Z,97309.49
2022-09-16T23:39:30.381Z,97311.26
2022-09-16T23:42:03.525Z,97312.11
2022-09-16T23:44:36.610Z,97310.38
2022-09-16T23:47:09.713Z,97306.97
2022-09-16T23:49:43.463Z,97310.52
2022-09-16T23:52:16.555Z,97309.72
2022-09-16T23:54:49.629Z,97309.81
2022-09-16T23:57:23.042Z,97309.86
2022-09-16T23:59:56.271Z,97301.23
